createdAt,value
2019-03-24T00:00:12.360Z,22.20
2019-03-24T00:02:40.641Z,24.37
2019-03-24T00:05:08.873Z,24.85
2019-03-24T00:07:37.101Z,23.67
2019-03-24T00:10:06.994Z,23.75
2019-03-24T00:12:35.212Z,20.20
2019-03-24T00:15:05.489Z,24.90
2019-03-24T00:17:33.713Z,23.32
2019-03-24T00:20:01.949Z,22.87
2019-03-24T00:22:30.180Z,25.70
2019-03-24T00:24:58.429Z,22.70
2019-03-24T00:27:26.660Z,21.07
2019-03-24T00:29:56.521Z,23.80
2019-03-24T00:32:24.746Z,24.18
2019-03-24T00:34:52.973Z,23.55
2019-03-24T00:37:21.215Z,23.85
2019-03-24T00:39:49.454Z,23.05
2019-03-24T00:42:17.685Z,24.43
2019-03-24T00:44:45.973Z,24.23
2019-03-24T00:47:14.319Z,22.75
2019-03-24T00:49:42.619Z,24.35
2019-03-24T00:52:10.850Z,21.17
2019-03-24T00:54:39.088Z,24.70
2019-03-24T00:57:07.329Z,24.20
2019-03-24T00:59:35.565Z,19.62
2019-03-24T01:02:03.796Z,23.07
2019-03-24T01:04:32.051Z,22.13
2019-03-24T01:07:00.336Z,23.30
2019-03-24T01:09:28.579Z,21.80
2019-03-24T01:11:56.808Z,22.17
2019-03-24T01:14:25.037Z,22.20
2019-03-24T01:16:53.265Z,21.85
2019-03-24T01:19:21.508Z,23.83
2019-03-24T01:21:49.740Z,22.27
2019-03-24T01:24:17.992Z,23.35
2019-03-24T01:26:46.212Z,23.70
2019-03-24T01:29:14.454Z,21.85
2019-03-24T01:31:42.681Z,23.22
2019-03-24T01:34:11.067Z,23.65
2019-03-24T01:36:40.322Z,21.23
2019-03-24T01:39:08.560Z,20.52
2019-03-24T01:41:36.796Z,22.65
2019-03-24T01:44:05.029Z,22.82
2019-03-24T01:46:33.260Z,22.67
2019-03-24T01:49:01.532Z,20.00
2019-03-24T01:51:29.769Z,23.10
2019-03-24T01:53:57.996Z,21.00
2019-03-24T01:56:26.237Z,24.52
2019-03-24T01:58:54.465Z,23.67
2019-03-24T02:01:22.704Z,19.57
2019-03-24T02:03:50.995Z,23.38
2019-03-24T02:06:19.232Z,20.25
2019-03-24T02:08:47.472Z,20.00
2019-03-24T02:11:15.713Z,21.42
2019-03-24T02:13:43.932Z,21.40
2019-03-24T02:16:12.161Z,19.35
2019-03-24T02:18:40.397Z,22.87
2019-03-24T02:21:08.620Z,20.95
2019-03-24T02:23:36.858Z,21.05
2019-03-24T02:26:05.083Z,21.80
2019-03-24T02:28:33.315Z,20.65
2019-03-24T02:31:01.550Z,22.60
2019-03-24T02:33:29.784Z,20.77
2019-03-24T02:35:58.018Z,23.25
2019-03-24T02:38:26.262Z,20.48
2019-03-24T02:40:54.763Z,20.65
2019-03-24T02:43:23.008Z,20.25
2019-03-24T02:45:51.225Z,20.30
2019-03-24T02:48:19.456Z,20.85
2019-03-24T02:50:47.691Z,22.15
2019-03-24T02:53:15.914Z,21.02
2019-03-24T02:55:44.157Z,21.37
2019-03-24T02:58:12.379Z,20.35
2019-03-24T03:00:40.630Z,19.90
2019-03-24T03:03:08.913Z,20.02
2019-03-24T03:05:37.136Z,20.40
2019-03-24T03:08:05.385Z,23.95
2019-03-24T03:10:33.644Z,21.48
2019-03-24T03:13:01.883Z,22.50
2019-03-24T03:15:30.107Z,20.90
2019-03-24T03:17:58.346Z,20.10
2019-03-24T03:20:26.569Z,20.88
2019-03-24T03:22:54.813Z,21.25
2019-03-24T03:25:23.041Z,21.52
2019-03-24T03:27:51.279Z,20.45
2019-03-24T03:30:19.519Z,20.25
2019-03-24T03:32:47.756Z,20.40
2019-03-24T03:35:15.982Z,22.25
2019-03-24T03:37:44.373Z,20.05
2019-03-24T03:40:13.095Z,22.42
2019-03-24T03:42:41.327Z,23.87
2019-03-24T03:45:10.326Z,23.27
2019-03-24T03:47:39.298Z,23.65
2019-03-24T03:50:07.582Z,22.80
2019-03-24T03:52:35.823Z,22.52
2019-03-24T03:55:05.549Z,22.30
2019-03-24T03:57:33.899Z,22.73
2019-03-24T04:00:02.148Z,19.48
2019-03-24T04:02:30.425Z,20.68
2019-03-24T04:04:58.664Z,19.80
2019-03-24T04:07:26.966Z,21.42
2019-03-24T04:09:55.194Z,19.35
2019-03-24T04:12:23.421Z,20.35
2019-03-24T04:14:51.666Z,19.27
2019-03-24T04:17:19.893Z,21.57
2019-03-24T04:19:48.126Z,19.67
2019-03-24T04:22:16.376Z,20.20
2019-03-24T04:24:44.596Z,20.32
2019-03-24T04:27:12.833Z,19.15
2019-03-24T04:29:41.080Z,19.85
2019-03-24T04:32:09.305Z,21.12
2019-03-24T04:34:37.539Z,20.57
2019-03-24T04:37:05.777Z,20.62
2019-03-24T04:39:34.009Z,21.77
2019-03-24T04:42:02.253Z,20.88
2019-03-24T04:44:30.518Z,21.57
2019-03-24T04:46:58.785Z,20.10
2019-03-24T04:49:27.044Z,21.33
2019-03-24T04:51:55.277Z,20.92
2019-03-24T04:54:23.505Z,20.08
2019-03-24T04:56:51.800Z,20.92
2019-03-24T04:59:20.043Z,19.67
2019-03-24T05:01:48.269Z,22.62
2019-03-24T05:04:16.517Z,21.73
2019-03-24T05:06:44.756Z,20.80
2019-03-24T05:09:12.983Z,19.60
2019-03-24T05:11:41.216Z,21.55
2019-03-24T05:14:09.455Z,22.65
2019-03-24T05:16:37.680Z,21.50
2019-03-24T05:19:05.917Z,20.97
2019-03-24T05:21:34.144Z,21.17
2019-03-24T05:24:02.368Z,21.73
2019-03-24T05:26:30.612Z,21.73
2019-03-24T05:28:58.841Z,22.02
2019-03-24T05:31:27.082Z,22.77
2019-03-24T05:33:55.316Z,22.93
2019-03-24T05:36:23.557Z,21.65
2019-03-24T05:38:51.772Z,23.92
2019-03-24T05:41:20.001Z,25.08
2019-03-24T05:43:48.232Z,24.00
2019-03-24T05:46:16.452Z,23.05
2019-03-24T05:48:44.685Z,20.80
2019-03-24T05:51:12.928Z,22.40
2019-03-24T05:53:41.178Z,23.20
2019-03-24T05:56:09.400Z,22.00
2019-03-24T05:58:37.647Z,22.65
2019-03-24T06:01:05.949Z,20.75
2019-03-24T06:03:34.177Z,22.60
2019-03-24T06:06:02.401Z,23.35
2019-03-24T06:08:30.812Z,24.00
2019-03-24T06:10:59.043Z,23.10
2019-03-24T06:13:27.269Z,22.13
2019-03-24T06:15:55.501Z,23.38
2019-03-24T06:18:23.744Z,22.10
2019-03-24T06:20:52.004Z,22.42
2019-03-24T06:23:20.224Z,23.20
2019-03-24T06:25:48.453Z,22.15
2019-03-24T06:28:16.689Z,20.23
2019-03-24T06:30:45.004Z,22.87
2019-03-24T06:33:13.237Z,21.77
2019-03-24T06:35:41.470Z,21.30
2019-03-24T06:38:09.705Z,23.67
2019-03-24T06:40:37.937Z,20.27
2019-03-24T06:43:06.164Z,21.70
2019-03-24T06:45:34.423Z,20.55
2019-03-24T06:48:02.655Z,20.77
2019-03-24T06:50:30.875Z,20.75
2019-03-24T06:52:59.122Z,20.08
2019-03-24T06:55:27.349Z,20.17
2019-03-24T06:57:55.570Z,21.23
2019-03-24T07:00:23.812Z,22.45
2019-03-24T07:02:52.045Z,21.07
2019-03-24T07:05:20.362Z,21.20
2019-03-24T07:07:48.595Z,20.35
2019-03-24T07:10:16.804Z,20.15
2019-03-24T07:12:45.053Z,22.70
2019-03-24T07:15:13.282Z,21.30
2019-03-24T07:17:41.512Z,21.82
2019-03-24T07:20:09.753Z,21.48
2019-03-24T07:22:37.981Z,21.40
2019-03-24T07:25:06.568Z,21.80
2019-03-24T07:27:34.886Z,21.30
2019-03-24T07:30:05.344Z,20.43
2019-03-24T07:32:33.603Z,20.20
2019-03-24T07:35:01.847Z,22.35
2019-03-24T07:37:30.140Z,21.27
2019-03-24T07:39:58.369Z,21.57
2019-03-24T07:42:26.608Z,21.65
2019-03-24T07:44:54.840Z,22.50
2019-03-24T07:47:23.085Z,24.23
2019-03-24T07:49:51.320Z,22.30
2019-03-24T07:52:19.555Z,24.20
2019-03-24T07:54:47.818Z,21.60
2019-03-24T07:57:16.036Z,23.05
2019-03-24T07:59:44.286Z,22.77
2019-03-24T08:02:12.504Z,20.08
2019-03-24T08:04:40.738Z,22.70
2019-03-24T08:07:08.980Z,21.20
2019-03-24T08:09:37.356Z,23.98
2019-03-24T08:12:05.630Z,21.87
2019-03-24T08:14:33.859Z,26.25
2019-03-24T08:17:02.428Z,24.90
2019-03-24T08:19:30.687Z,22.35
2019-03-24T08:21:58.908Z,24.70
2019-03-24T08:24:27.149Z,24.00
2019-03-24T08:26:55.380Z,26.68
2019-03-24T08:29:23.608Z,23.65
2019-03-24T08:31:51.853Z,23.35
2019-03-24T08:34:20.083Z,25.48
2019-03-24T08:36:48.321Z,26.45
2019-03-24T08:39:16.625Z,25.30
2019-03-24T08:41:44.866Z,24.23
2019-03-24T08:44:13.077Z,25.27
2019-03-24T08:46:41.323Z,27.15
2019-03-24T08:49:09.554Z,26.97
2019-03-24T08:51:37.858Z,27.15
2019-03-24T08:54:06.105Z,26.52
2019-03-24T08:56:34.334Z,28.52
2019-03-24T08:59:02.565Z,26.60
2019-03-24T09:01:30.813Z,29.48
2019-03-24T09:03:59.065Z,26.95
2019-03-24T09:06:27.313Z,26.52
2019-03-24T09:08:55.553Z,29.35
2019-03-24T09:11:31.166Z,28.67
2019-03-24T09:13:53.741Z,30.25
2019-03-24T09:16:21.992Z,28.90
2019-03-24T09:18:52.911Z,28.70
2019-03-24T09:21:20.225Z,28.45
2019-03-24T09:23:48.456Z,28.62
2019-03-24T09:26:16.690Z,25.40
2019-03-24T09:28:46.301Z,29.80
2019-03-24T09:31:14.553Z,29.98
2019-03-24T09:33:42.801Z,30.02
2019-03-24T09:36:11.058Z,28.83
2019-03-24T09:38:39.349Z,29.48
2019-03-24T09:41:07.577Z,29.15
2019-03-24T09:43:35.824Z,29.85
2019-03-24T09:46:04.073Z,28.32
2019-03-24T09:48:32.288Z,31.65
2019-03-24T09:51:00.541Z,28.67
2019-03-24T09:53:28.777Z,30.92
2019-03-24T09:55:57.008Z,33.33
2019-03-24T09:58:25.300Z,32.28
2019-03-24T10:00:53.524Z,32.93
2019-03-24T10:03:21.765Z,31.02
2019-03-24T10:05:50.045Z,33.38
2019-03-24T10:08:18.270Z,33.90
2019-03-24T10:10:46.519Z,33.40
2019-03-24T10:13:14.741Z,30.02
2019-03-24T12:29:20.799Z,36.42
2019-03-24T12:31:49.033Z,36.03
2019-03-24T12:34:17.272Z,34.23
2019-03-24T12:36:45.526Z,38.23
2019-03-24T12:39:13.765Z,37.00
2019-03-24T12:41:42.604Z,38.58
2019-03-24T12:44:10.832Z,37.60
2019-03-24T12:46:39.119Z,33.58
2019-03-24T12:49:07.342Z,35.00
2019-03-24T12:51:35.585Z,35.08
2019-03-24T12:54:03.818Z,37.33
2019-03-24T12:56:32.096Z,35.55
2019-03-24T12:59:00.377Z,38.53
2019-03-24T13:01:28.636Z,40.50
2019-03-24T13:03:56.881Z,36.55
2019-03-24T13:06:25.119Z,35.60
2019-03-24T13:08:53.362Z,36.40
2019-03-24T13:11:21.592Z,35.13
2019-03-24T13:13:49.841Z,38.20
2019-03-24T13:16:18.080Z,35.98
2019-03-24T13:18:46.325Z,37.30
2019-03-24T13:21:14.561Z,35.25
2019-03-24T13:23:42.834Z,35.65
2019-03-24T13:26:11.126Z,34.95
2019-03-24T13:28:39.389Z,35.73
2019-03-24T13:31:07.618Z,36.13
2019-03-24T13:33:35.866Z,34.58
2019-03-24T13:36:05.823Z,35.70
2019-03-24T13:38:34.088Z,36.23
2019-03-24T13:41:02.334Z,35.55
2019-03-24T13:43:31.232Z,34.03
2019-03-24T13:45:59.482Z,35.63
2019-03-24T13:48:27.703Z,34.60
2019-03-24T13:50:55.965Z,35.75
2019-03-24T13:53:24.200Z,32.83
2019-03-24T13:55:52.432Z,34.80
2019-03-24T13:58:20.771Z,34.85
2019-03-24T14:00:49.006Z,35.03
2019-03-24T14:03:17.246Z,33.48
2019-03-24T14:05:45.577Z,33.83
2019-03-24T14:08:13.830Z,33.30
2019-03-24T14:10:42.058Z,33.78
2019-03-24T14:13:10.302Z,33.85
2019-03-24T14:15:38.529Z,35.23
2019-03-24T14:18:06.808Z,35.03
2019-03-24T14:20:43.496Z,35.98
2019-03-24T14:23:07.505Z,33.23
2019-03-24T14:25:35.725Z,35.05
2019-03-24T14:28:03.948Z,34.38
2019-03-24T14:30:42.688Z,34.48
2019-03-24T14:33:10.942Z,35.08
2019-03-24T14:35:39.188Z,36.85
2019-03-24T14:38:07.420Z,35.45
2019-03-24T14:40:35.675Z,34.63
2019-03-24T14:43:03.900Z,35.65
2019-03-24T14:45:32.144Z,35.75
2019-03-24T14:48:00.375Z,35.28
2019-03-24T14:50:28.617Z,33.08
2019-03-24T14:52:56.863Z,37.35
2019-03-24T14:55:25.111Z,34.63
2019-03-24T14:57:53.341Z,30.82
2019-03-24T15:00:30.814Z,35.80
2019-03-24T15:02:59.036Z,32.05
2019-03-24T15:05:27.293Z,31.48
2019-03-24T15:07:55.530Z,33.35
2019-03-24T15:10:23.765Z,32.63
2019-03-24T15:12:52.004Z,32.33
2019-03-24T15:15:20.265Z,32.85
2019-03-24T15:17:48.499Z,29.72
2019-03-24T15:20:16.745Z,28.73
2019-03-24T15:22:44.975Z,33.53
2019-03-24T15:25:13.217Z,32.23
2019-03-24T15:27:44.125Z,31.85
2019-03-24T15:30:13.029Z,30.90
2019-03-24T15:32:41.261Z,30.60
2019-03-24T15:35:09.505Z,31.10
2019-03-24T15:37:37.733Z,30.52
2019-03-24T15:40:06.515Z,31.77
2019-03-24T15:42:34.762Z,31.62
2019-03-24T15:45:03.765Z,32.05
2019-03-24T15:47:32.000Z,32.78
2019-03-24T15:50:00.342Z,31.23
2019-03-24T15:52:28.660Z,31.40
2019-03-24T15:54:56.898Z,29.98
2019-03-24T15:57:25.158Z,31.00
2019-03-24T15:59:53.382Z,27.60
2019-03-24T16:02:21.611Z,31.40
2019-03-24T16:04:49.844Z,32.58
2019-03-24T16:07:18.085Z,29.60
2019-03-24T16:09:46.314Z,29.65
2019-03-24T16:12:14.553Z,30.30
2019-03-24T16:14:42.781Z,28.60
2019-03-24T16:17:11.300Z,28.27
2019-03-24T16:19:39.672Z,30.57
2019-03-24T16:22:07.909Z,29.10
2019-03-24T16:24:36.148Z,27.02
2019-03-24T16:27:04.396Z,29.18
2019-03-24T16:29:32.623Z,30.27
2019-03-24T16:32:00.866Z,31.73
2019-03-24T16:34:29.100Z,28.02
2019-03-24T16:36:57.354Z,28.25
2019-03-24T16:39:25.657Z,29.30
2019-03-24T16:41:53.896Z,30.00
2019-03-24T16:44:22.142Z,32.67
2019-03-24T16:46:50.421Z,31.10
2019-03-24T16:49:18.644Z,32.70
2019-03-24T16:51:46.881Z,34.70
2019-03-24T16:54:15.134Z,32.20
2019-03-24T16:56:43.360Z,33.33
2019-03-24T16:59:11.602Z,33.48
2019-03-24T17:01:39.830Z,39.13
2019-03-24T17:04:08.117Z,40.95
2019-03-24T17:06:36.352Z,35.92
2019-03-24T17:09:06.153Z,34.43
2019-03-24T17:11:34.389Z,34.98
2019-03-24T17:14:02.637Z,29.85
2019-03-24T17:16:30.882Z,32.38
2019-03-24T17:18:59.133Z,33.40
2019-03-24T17:21:27.371Z,32.55
2019-03-24T17:23:55.614Z,31.70
2019-03-24T17:26:23.848Z,33.30
2019-03-24T17:28:52.090Z,33.92
2019-03-24T17:31:20.321Z,32.85
2019-03-24T17:33:48.567Z,34.58
2019-03-24T17:36:16.801Z,34.85
2019-03-24T17:38:45.053Z,33.58
2019-03-24T17:41:13.290Z,34.90
2019-03-24T17:43:41.538Z,35.60
2019-03-24T17:46:09.799Z,35.95
2019-03-24T17:48:38.032Z,33.38
2019-03-24T17:51:06.281Z,37.63
2019-03-24T17:53:34.530Z,37.93
2019-03-24T17:56:02.949Z,40.12
2019-03-24T17:58:31.184Z,38.42
2019-03-24T18:00:59.417Z,39.83
2019-03-24T18:03:27.648Z,39.10
2019-03-24T18:05:55.921Z,41.08
2019-03-24T18:08:24.153Z,42.53
2019-03-24T18:10:52.393Z,40.10
2019-03-24T18:13:20.701Z,44.80
2019-03-24T18:15:48.984Z,43.85
2019-03-24T18:18:17.231Z,45.00
2019-03-24T18:20:45.535Z,44.63
2019-03-24T18:23:13.849Z,44.38
2019-03-24T18:25:42.485Z,42.80
2019-03-24T18:28:10.879Z,44.27
2019-03-24T18:30:39.143Z,46.18
2019-03-24T18:33:07.425Z,46.98
2019-03-24T18:35:35.698Z,48.23
2019-03-24T18:38:04.075Z,47.10
2019-03-24T18:40:32.326Z,45.43
2019-03-24T18:43:01.262Z,46.83
2019-03-24T18:45:29.570Z,44.50
2019-03-24T18:47:58.159Z,46.53
2019-03-24T18:50:26.552Z,42.05
2019-03-24T18:52:55.449Z,44.53
2019-03-24T18:55:24.133Z,43.92
2019-03-24T18:57:53.920Z,43.15
2019-03-24T19:00:23.712Z,43.38
2019-03-24T19:02:53.379Z,42.95
2019-03-24T19:05:22.611Z,43.60
2019-03-24T19:07:51.590Z,43.70
2019-03-24T19:10:20.733Z,44.53
2019-03-24T19:12:49.438Z,44.30
2019-03-24T19:15:39.595Z,43.45
2019-03-24T19:18:08.618Z,41.98
2019-03-24T19:20:37.613Z,42.95
2019-03-24T19:23:06.827Z,43.35
2019-03-24T19:25:36.728Z,41.75
2019-03-24T19:28:06.619Z,42.45
2019-03-24T19:30:38.374Z,43.55
2019-03-24T19:33:08.537Z,46.33
2019-03-24T19:35:38.794Z,40.85
2019-03-24T19:38:08.529Z,43.30
2019-03-24T19:40:38.421Z,42.83
2019-03-24T19:43:08.167Z,44.95
2019-03-24T19:45:37.881Z,42.85
2019-03-24T19:48:08.036Z,44.40
2019-03-24T19:50:38.004Z,43.45
2019-03-24T19:53:08.011Z,43.50
2019-03-24T19:55:37.775Z,43.50
2019-03-24T19:58:07.557Z,41.58
2019-03-24T20:00:37.407Z,43.75
2019-03-24T20:03:07.507Z,43.28
2019-03-24T20:05:37.440Z,46.28
2019-03-24T20:08:07.656Z,43.92
2019-03-24T20:10:37.515Z,44.48
2019-03-24T20:13:07.328Z,46.30
2019-03-24T20:15:37.627Z,45.35
2019-03-24T20:18:07.229Z,44.18
2019-03-24T20:20:37.132Z,45.67
2019-03-24T20:23:06.896Z,44.23
2019-03-24T20:25:37.698Z,42.98
2019-03-24T20:28:07.791Z,44.03
2019-03-24T20:30:38.715Z,45.15
2019-03-24T20:33:09.997Z,45.25
2019-03-24T20:35:40.394Z,44.67
2019-03-24T20:38:10.166Z,45.05
2019-03-24T20:40:40.188Z,46.70
2019-03-24T20:43:10.650Z,48.38
2019-03-24T20:45:40.677Z,48.17
2019-03-24T20:48:10.406Z,48.68
2019-03-24T20:50:40.046Z,46.75
2019-03-24T20:53:18.038Z,49.08
2019-03-24T20:55:41.312Z,46.83
2019-03-24T20:58:11.483Z,46.53
2019-03-24T21:00:41.259Z,45.67
2019-03-24T21:03:10.273Z,49.33
2019-03-24T21:05:39.782Z,49.35
2019-03-24T21:08:09.047Z,47.83
2019-03-24T21:10:37.386Z,48.60
2019-03-24T21:13:13.379Z,47.43
2019-03-24T21:15:41.641Z,45.48
2019-03-24T21:18:11.661Z,49.45
2019-03-24T21:20:39.926Z,47.83
2019-03-24T21:23:08.178Z,49.50
2019-03-24T21:25:36.409Z,44.88
2019-03-24T21:28:04.880Z,44.95
2019-03-24T21:30:37.417Z,45.12
2019-03-24T21:33:05.749Z,49.03
2019-03-24T21:35:33.975Z,42.20
2019-03-24T21:38:02.261Z,47.80
2019-03-24T21:40:30.545Z,47.38
2019-03-24T21:42:58.781Z,45.60
2019-03-24T21:45:27.013Z,47.70
2019-03-24T21:47:55.272Z,46.50
2019-03-24T21:50:23.499Z,45.17
2019-03-24T21:52:51.821Z,49.38
2019-03-24T21:55:20.096Z,47.40
2019-03-24T21:57:57.127Z,47.25
2019-03-24T22:00:21.618Z,49.80
2019-03-24T22:02:49.991Z,44.88
2019-03-24T22:05:18.218Z,47.05
2019-03-24T22:07:46.444Z,44.95
2019-03-24T22:10:16.410Z,46.77
2019-03-24T22:12:44.659Z,47.17
2019-03-24T22:15:12.897Z,45.70
2019-03-24T22:17:41.206Z,50.30
2019-03-24T22:20:13.893Z,47.40
2019-03-24T22:22:43.789Z,44.75
2019-03-24T22:25:13.500Z,48.17
2019-03-24T22:27:41.760Z,50.05
2019-03-24T22:30:13.008Z,46.98
2019-03-24T22:32:41.272Z,47.38
2019-03-24T22:35:09.532Z,49.58
2019-03-24T22:37:39.534Z,48.48
2019-03-24T22:40:07.942Z,46.23
2019-03-24T22:42:36.207Z,50.28
2019-03-24T22:45:05.233Z,47.78
2019-03-24T22:47:33.517Z,51.50
2019-03-24T22:50:01.765Z,49.42
2019-03-24T22:52:30.029Z,51.58
2019-03-24T22:54:58.257Z,53.52
2019-03-24T22:57:26.501Z,51.55
2019-03-24T22:59:54.739Z,49.88
2019-03-24T23:02:22.976Z,49.05
2019-03-24T23:04:51.197Z,51.28
2019-03-24T23:07:19.459Z,49.45
2019-03-24T23:09:47.742Z,49.30
2019-03-24T23:12:16.008Z,50.33
2019-03-24T23:14:44.236Z,48.90
2019-03-24T23:17:12.478Z,48.17
2019-03-24T23:19:40.754Z,52.38
2019-03-24T23:22:09.037Z,50.58
2019-03-24T23:24:37.304Z,48.60
2019-03-24T23:27:05.533Z,49.27
2019-03-24T23:29:33.764Z,49.90
2019-03-24T23:32:01.996Z,50.10
2019-03-24T23:34:30.229Z,49.33
2019-03-24T23:36:58.480Z,51.58
2019-03-24T23:39:27.325Z,49.42
2019-03-24T23:41:55.647Z,48.87
2019-03-24T23:44:23.884Z,50.50
2019-03-24T23:46:52.121Z,49.75
2019-03-24T23:49:20.403Z,50.43
2019-03-24T23:51:48.679Z,51.23
2019-03-24T23:54:26.573Z,50.88
2019-03-24T23:56:46.873Z,49.95
2019-03-24T23:59:15.108Z,52.58
